sensor_id;sensor_type;location;lat;lon;timestamp;temperature;humidity
67275;DHT22;55463;52.324;5.122;2022-08-19T00:01:40;17.53;94.56
67275;DHT22;55463;52.324;5.122;2022-08-19T00:04:09;17.52;94.62
67275;DHT22;55463;52.324;5.122;2022-08-19T00:06:36;17.49;94.59
67275;DHT22;55463;52.324;5.122;2022-08-19T00:09:03;17.52;95.00
67275;DHT22;55463;52.324;5.122;2022-08-19T00:11:29;17.49;94.78
67275;DHT22;55463;52.324;5.122;2022-08-19T00:13:55;17.49;94.97
67275;DHT22;55463;52.324;5.122;2022-08-19T00:16:22;17.46;94.74
67275;DHT22;55463;52.324;5.122;2022-08-19T00:18:48;17.42;94.70
67275;DHT22;55463;52.324;5.122;2022-08-19T00:21:13;17.36;94.59
67275;DHT22;55463;52.324;5.122;2022-08-19T00:23:39;17.35;94.75
67275;DHT22;55463;52.324;5.122;2022-08-19T00:26:06;17.35;94.78
67275;DHT22;55463;52.324;5.122;2022-08-19T00:28:32;17.34;94.82
67275;DHT22;55463;52.324;5.122;2022-08-19T00:30:59;17.34;95.05
67275;DHT22;55463;52.324;5.122;2022-08-19T00:33:25;17.32;95.23
67275;DHT22;55463;52.324;5.122;2022-08-19T00:35:50;17.29;95.13
67275;DHT22;55463;52.324;5.122;2022-08-19T00:38:15;17.29;95.35
67275;DHT22;55463;52.324;5.122;2022-08-19T00:40:44;17.29;95.29
67275;DHT22;55463;52.324;5.122;2022-08-19T00:43:13;17.29;95.31
67275;DHT22;55463;52.324;5.122;2022-08-19T00:45:39;17.31;95.39
67275;DHT22;55463;52.324;5.122;2022-08-19T00:48:07;17.29;95.51
67275;DHT22;55463;52.324;5.122;2022-08-19T00:50:33;17.25;95.49
67275;DHT22;55463;52.324;5.122;2022-08-19T00:53:00;17.22;95.38
67275;DHT22;55463;52.324;5.122;2022-08-19T00:55:31;17.22;95.75
67275;DHT22;55463;52.324;5.122;2022-08-19T00:58:02;17.20;95.60
67275;DHT22;55463;52.324;5.122;2022-08-19T01:00:28;17.18;95.54
67275;DHT22;55463;52.324;5.122;2022-08-19T01:02:54;17.15;95.86
67275;DHT22;55463;52.324;5.122;2022-08-19T01:05:22;17.17;95.71
67275;DHT22;55463;52.324;5.122;2022-08-19T01:07:48;17.12;95.74
67275;DHT22;55463;52.324;5.122;2022-08-19T01:10:18;17.10;95.60
67275;DHT22;55463;52.324;5.122;2022-08-19T01:12:45;17.08;95.75
67275;DHT22;55463;52.324;5.122;2022-08-19T01:15:15;17.08;95.69
67275;DHT22;55463;52.324;5.122;2022-08-19T01:17:42;17.08;95.82
67275;DHT22;55463;52.324;5.122;2022-08-19T01:20:19;17.01;95.49
67275;DHT22;55463;52.324;5.122;2022-08-19T01:22:47;17.01;95.65
67275;DHT22;55463;52.324;5.122;2022-08-19T01:25:17;16.95;95.41
67275;DHT22;55463;52.324;5.122;2022-08-19T01:27:45;16.94;95.51
67275;DHT22;55463;52.324;5.122;2022-08-19T01:30:16;16.95;95.63
67275;DHT22;55463;52.324;5.122;2022-08-19T01:32:41;16.94;95.69
67275;DHT22;55463;52.324;5.122;2022-08-19T01:35:09;16.93;95.72
67275;DHT22;55463;52.324;5.122;2022-08-19T01:37:59;16.93;95.80
67275;DHT22;55463;52.324;5.122;2022-08-19T01:40:28;16.95;95.88
67275;DHT22;55463;52.324;5.122;2022-08-19T01:42:54;16.90;95.62
67275;DHT22;55463;52.324;5.122;2022-08-19T01:45:21;16.84;95.51
67275;DHT22;55463;52.324;5.122;2022-08-19T01:47:47;16.77;95.45
67275;DHT22;55463;52.324;5.122;2022-08-19T01:50:13;16.77;95.59
67275;DHT22;55463;52.324;5.122;2022-08-19T01:52:40;16.70;95.47
67275;DHT22;55463;52.324;5.122;2022-08-19T01:55:10;16.72;95.54
67275;DHT22;55463;52.324;5.122;2022-08-19T01:57:37;16.72;95.79
67275;DHT22;55463;52.324;5.122;2022-08-19T02:00:07;16.73;95.95
67275;DHT22;55463;52.324;5.122;2022-08-19T02:02:33;16.76;96.06
67275;DHT22;55463;52.324;5.122;2022-08-19T02:04:59;16.74;96.11
67275;DHT22;55463;52.324;5.122;2022-08-19T02:07:24;16.70;95.91
67275;DHT22;55463;52.324;5.122;2022-08-19T02:09:49;16.70;96.02
67275;DHT22;55463;52.324;5.122;2022-08-19T02:12:15;16.66;95.98
67275;DHT22;55463;52.324;5.122;2022-08-19T02:14:42;16.67;96.13
67275;DHT22;55463;52.324;5.122;2022-08-19T02:17:07;16.59;95.91
67275;DHT22;55463;52.324;5.122;2022-08-19T02:19:33;16.62;96.20
67275;DHT22;55463;52.324;5.122;2022-08-19T02:21:59;16.60;96.18
67275;DHT22;55463;52.324;5.122;2022-08-19T02:24:25;16.65;96.52
67275;DHT22;55463;52.324;5.122;2022-08-19T02:26:50;16.70;96.74
67275;DHT22;55463;52.324;5.122;2022-08-19T02:29:16;16.83;97.01
67275;DHT22;55463;52.324;5.122;2022-08-19T02:31:42;16.85;96.90
67275;DHT22;55463;52.324;5.122;2022-08-19T02:34:07;16.85;96.84
67275;DHT22;55463;52.324;5.122;2022-08-19T02:36:33;16.87;96.87
67275;DHT22;55463;52.324;5.122;2022-08-19T02:38:59;16.87;96.87
67275;DHT22;55463;52.324;5.122;2022-08-19T02:41:27;16.85;96.87
67275;DHT22;55463;52.324;5.122;2022-08-19T02:43:55;16.83;96.72
67275;DHT22;55463;52.324;5.122;2022-08-19T02:46:25;16.73;96.56
67275;DHT22;55463;52.324;5.122;2022-08-19T02:48:53;16.65;96.29
67275;DHT22;55463;52.324;5.122;2022-08-19T02:51:25;16.62;96.44
67275;DHT22;55463;52.324;5.122;2022-08-19T02:53:51;16.59;96.53
67275;DHT22;55463;52.324;5.122;2022-08-19T02:56:16;16.56;96.73
67275;DHT22;55463;52.324;5.122;2022-08-19T02:58:42;16.55;96.74
67275;DHT22;55463;52.324;5.122;2022-08-19T03:01:09;16.56;96.74
67275;DHT22;55463;52.324;5.122;2022-08-19T03:03:35;16.51;96.51
67275;DHT22;55463;52.324;5.122;2022-08-19T03:06:15;16.44;96.47
67275;DHT22;55463;52.324;5.122;2022-08-19T03:08:42;16.42;96.73
67275;DHT22;55463;52.324;5.122;2022-08-19T03:11:24;16.41;96.80
67275;DHT22;55463;52.324;5.122;2022-08-19T03:13:51;16.41;96.95
67275;DHT22;55463;52.324;5.122;2022-08-19T03:16:21;16.42;97.01
67275;DHT22;55463;52.324;5.122;2022-08-19T03:18:48;16.44;97.04
67275;DHT22;55463;52.324;5.122;2022-08-19T03:21:23;16.42;97.07
67275;DHT22;55463;52.324;5.122;2022-08-19T03:23:53;16.49;97.39
67275;DHT22;55463;52.324;5.122;2022-08-19T03:26:18;16.45;96.99
67275;DHT22;55463;52.324;5.122;2022-08-19T03:28:45;16.45;97.12
67275;DHT22;55463;52.324;5.122;2022-08-19T03:31:16;16.38;96.96
67275;DHT22;55463;52.324;5.122;2022-08-19T03:33:42;16.36;97.13
67275;DHT22;55463;52.324;5.122;2022-08-19T03:36:12;16.35;97.00
67275;DHT22;55463;52.324;5.122;2022-08-19T03:38:43;16.29;97.00
67275;DHT22;55463;52.324;5.122;2022-08-19T03:41:12;16.26;96.95
67275;DHT22;55463;52.324;5.122;2022-08-19T03:43:39;16.25;96.91
67275;DHT22;55463;52.324;5.122;2022-08-19T03:46:08;16.21;97.04
67275;DHT22;55463;52.324;5.122;2022-08-19T03:48:35;16.24;97.14
67275;DHT22;55463;52.324;5.122;2022-08-19T03:51:02;16.26;97.26
67275;DHT22;55463;52.324;5.122;2022-08-19T03:53:28;16.25;97.07
67275;DHT22;55463;52.324;5.122;2022-08-19T03:55:54;16.24;97.08
67275;DHT22;55463;52.324;5.122;2022-08-19T03:58:20;16.22;97.18
67275;DHT22;55463;52.324;5.122;2022-08-19T04:00:46;16.24;97.25
67275;DHT22;55463;52.324;5.122;2022-08-19T04:03:11;16.25;97.28
67275;DHT22;55463;52.324;5.122;2022-08-19T04:05:36;16.22;97.21
67275;DHT22;55463;52.324;5.122;2022-08-19T04:08:03;16.20;97.14
67275;DHT22;55463;52.324;5.122;2022-08-19T04:10:28;16.20;97.21
67275;DHT22;55463;52.324;5.122;2022-08-19T04:12:54;16.18;97.22
67275;DHT22;55463;52.324;5.122;2022-08-19T04:15:19;16.24;97.67
67275;DHT22;55463;52.324;5.122;2022-08-19T04:17:45;16.22;97.42
67275;DHT22;55463;52.324;5.122;2022-08-19T04:20:11;16.21;97.31
67275;DHT22;55463;52.324;5.122;2022-08-19T04:22:37;16.20;97.24
67275;DHT22;55463;52.324;5.122;2022-08-19T04:25:02;16.17;97.33
67275;DHT22;55463;52.324;5.122;2022-08-19T04:27:28;16.17;97.40
67275;DHT22;55463;52.324;5.122;2022-08-19T04:29:54;16.12;97.09
67275;DHT22;55463;52.324;5.122;2022-08-19T04:32:20;16.10;97.37
67275;DHT22;55463;52.324;5.122;2022-08-19T04:34:46;16.08;97.25
67275;DHT22;55463;52.324;5.122;2022-08-19T04:37:11;16.08;97.46
67275;DHT22;55463;52.324;5.122;2022-08-19T04:39:37;16.07;97.29
67275;DHT22;55463;52.324;5.122;2022-08-19T04:42:22;16.05;97.39
67275;DHT22;55463;52.324;5.122;2022-08-19T04:45:07;16.05;97.48
67275;DHT22;55463;52.324;5.122;2022-08-19T04:47:35;16.04;97.25
67275;DHT22;55463;52.324;5.122;2022-08-19T04:50:02;16.03;97.41
67275;DHT22;55463;52.324;5.122;2022-08-19T04:52:28;16.07;97.51
67275;DHT22;55463;52.324;5.122;2022-08-19T04:54:57;16.08;97.52
67275;DHT22;55463;52.324;5.122;2022-08-19T04:57:22;16.10;97.46
67275;DHT22;55463;52.324;5.122;2022-08-19T04:59:48;16.10;97.42
67275;DHT22;55463;52.324;5.122;2022-08-19T05:02:13;16.15;97.54
67275;DHT22;55463;52.324;5.122;2022-08-19T05:04:39;16.17;97.63
67275;DHT22;55463;52.324;5.122;2022-08-19T05:07:06;16.21;97.74
67275;DHT22;55463;52.324;5.122;2022-08-19T05:09:31;16.25;97.86
67275;DHT22;55463;52.324;5.122;2022-08-19T05:11:57;16.32;97.93
67275;DHT22;55463;52.324;5.122;2022-08-19T05:14:22;16.36;97.86
67275;DHT22;55463;52.324;5.122;2022-08-19T05:16:48;16.42;97.83
67275;DHT22;55463;52.324;5.122;2022-08-19T05:19:13;16.51;97.87
67275;DHT22;55463;52.324;5.122;2022-08-19T05:21:59;16.59;97.78
67275;DHT22;55463;52.324;5.122;2022-08-19T05:24:43;16.67;97.74
67275;DHT22;55463;52.324;5.122;2022-08-19T05:27:08;16.72;97.74
67275;DHT22;55463;52.324;5.122;2022-08-19T05:29:33;16.74;97.80
67275;DHT22;55463;52.324;5.122;2022-08-19T05:32:00;16.83;97.96
67275;DHT22;55463;52.324;5.122;2022-08-19T05:34:26;16.90;97.97
67275;DHT22;55463;52.324;5.122;2022-08-19T05:36:54;16.91;97.92
67275;DHT22;55463;52.324;5.122;2022-08-19T05:39:24;17.03;97.91
67275;DHT22;55463;52.324;5.122;2022-08-19T05:41:56;17.11;97.81
67275;DHT22;55463;52.324;5.122;2022-08-19T05:44:24;17.15;97.76
67275;DHT22;55463;52.324;5.122;2022-08-19T05:46:49;17.31;97.70
67275;DHT22;55463;52.324;5.122;2022-08-19T05:49:18;17.49;97.87
67275;DHT22;55463;52.324;5.122;2022-08-19T05:51:43;17.66;97.86
67275;DHT22;55463;52.324;5.122;2022-08-19T05:54:09;17.80;97.79
67275;DHT22;55463;52.324;5.122;2022-08-19T05:56:37;17.94;97.79
67275;DHT22;55463;52.324;5.122;2022-08-19T05:59:04;18.05;97.69
67275;DHT22;55463;52.324;5.122;2022-08-19T06:01:35;18.17;97.62
67275;DHT22;55463;52.324;5.122;2022-08-19T06:04:01;18.19;97.48
67275;DHT22;55463;52.324;5.122;2022-08-19T06:06:26;18.24;97.22
67275;DHT22;55463;52.324;5.122;2022-08-19T06:08:52;18.25;97.04
67275;DHT22;55463;52.324;5.122;2022-08-19T06:13:45;18.49;97.13
67275;DHT22;55463;52.324;5.122;2022-08-19T06:16:13;18.59;96.95
67275;DHT22;55463;52.324;5.122;2022-08-19T06:18:45;18.69;96.54
67275;DHT22;55463;52.324;5.122;2022-08-19T06:21:10;18.74;96.17
67275;DHT22;55463;52.324;5.122;2022-08-19T06:23:36;18.77;96.28
67275;DHT22;55463;52.324;5.122;2022-08-19T06:26:01;18.76;96.19
67275;DHT22;55463;52.324;5.122;2022-08-19T06:28:26;18.81;96.52
67275;DHT22;55463;52.324;5.122;2022-08-19T06:30:52;18.80;96.13
67275;DHT22;55463;52.324;5.122;2022-08-19T06:33:17;18.74;96.09
67275;DHT22;55463;52.324;5.122;2022-08-19T06:35:43;18.74;96.11
67275;DHT22;55463;52.324;5.122;2022-08-19T06:38:08;18.73;96.20
67275;DHT22;55463;52.324;5.122;2022-08-19T06:40:34;18.72;96.43
67275;DHT22;55463;52.324;5.122;2022-08-19T06:43:00;18.73;96.96
67275;DHT22;55463;52.324;5.122;2022-08-19T06:45:27;18.81;96.64
67275;DHT22;55463;52.324;5.122;2022-08-19T06:47:53;18.74;96.49
67275;DHT22;55463;52.324;5.122;2022-08-19T06:50:22;18.79;96.60
67275;DHT22;55463;52.324;5.122;2022-08-19T06:52:48;18.80;96.86
67275;DHT22;55463;52.324;5.122;2022-08-19T06:55:14;18.86;96.88
67275;DHT22;55463;52.324;5.122;2022-08-19T06:57:41;18.87;96.55
67275;DHT22;55463;52.324;5.122;2022-08-19T07:00:08;18.86;96.23
67275;DHT22;55463;52.324;5.122;2022-08-19T07:02:36;18.91;96.77
67275;DHT22;55463;52.324;5.122;2022-08-19T07:05:03;18.90;96.62
67275;DHT22;55463;52.324;5.122;2022-08-19T07:07:30;18.98;96.56
67275;DHT22;55463;52.324;5.122;2022-08-19T07:09:56;18.93;96.40
67275;DHT22;55463;52.324;5.122;2022-08-19T07:12:21;18.91;96.74
67275;DHT22;55463;52.324;5.122;2022-08-19T07:14:47;18.96;96.54
67275;DHT22;55463;52.324;5.122;2022-08-19T07:17:14;18.89;96.58
67275;DHT22;55463;52.324;5.122;2022-08-19T07:19:40;18.91;96.45
67275;DHT22;55463;52.324;5.122;2022-08-19T07:22:08;18.91;96.46
67275;DHT22;55463;52.324;5.122;2022-08-19T07:24:34;18.97;96.85
67275;DHT22;55463;52.324;5.122;2022-08-19T07:27:01;19.00;96.61
67275;DHT22;55463;52.324;5.122;2022-08-19T07:29:29;19.08;96.81
67275;DHT22;55463;52.324;5.122;2022-08-19T07:31:56;19.14;96.34
67275;DHT22;55463;52.324;5.122;2022-08-19T07:34:23;19.18;96.44
67275;DHT22;55463;52.324;5.122;2022-08-19T07:36:49;19.26;96.51
67275;DHT22;55463;52.324;5.122;2022-08-19T07:39:26;19.24;96.35
67275;DHT22;55463;52.324;5.122;2022-08-19T07:41:52;19.32;96.40
67275;DHT22;55463;52.324;5.122;2022-08-19T07:44:19;19.39;96.11
67275;DHT22;55463;52.324;5.122;2022-08-19T07:46:48;19.39;95.59
67275;DHT22;55463;52.324;5.122;2022-08-19T07:49:14;19.51;95.65
67275;DHT22;55463;52.324;5.122;2022-08-19T07:51:46;19.48;95.45
67275;DHT22;55463;52.324;5.122;2022-08-19T07:54:12;19.53;95.38
67275;DHT22;55463;52.324;5.122;2022-08-19T07:56:37;19.66;95.30
67275;DHT22;55463;52.324;5.122;2022-08-19T07:59:02;19.84;95.31
67275;DHT22;55463;52.324;5.122;2022-08-19T08:01:28;20.01;94.78
67275;DHT22;55463;52.324;5.122;2022-08-19T08:03:55;20.11;93.97
67275;DHT22;55463;52.324;5.122;2022-08-19T08:06:39;20.32;94.40
67275;DHT22;55463;52.324;5.122;2022-08-19T08:09:28;20.41;93.03
67275;DHT22;55463;52.324;5.122;2022-08-19T08:11:57;20.46;92.83
67275;DHT22;55463;52.324;5.122;2022-08-19T08:14:36;20.46;92.08
67275;DHT22;55463;52.324;5.122;2022-08-19T08:17:04;20.60;92.02
67275;DHT22;55463;52.324;5.122;2022-08-19T08:19:29;20.69;91.64
67275;DHT22;55463;52.324;5.122;2022-08-19T08:21:57;20.76;91.55
67275;DHT22;55463;52.324;5.122;2022-08-19T08:24:24;20.90;91.24
67275;DHT22;55463;52.324;5.122;2022-08-19T08:26:50;21.04;90.93
67275;DHT22;55463;52.324;5.122;2022-08-19T08:29:15;21.14;90.57
67275;DHT22;55463;52.324;5.122;2022-08-19T08:31:43;21.20;90.30
67275;DHT22;55463;52.324;5.122;2022-08-19T08:34:09;21.20;90.17
67275;DHT22;55463;52.324;5.122;2022-08-19T08:36:42;21.08;90.18
67275;DHT22;55463;52.324;5.122;2022-08-19T08:39:13;21.08;90.60
67275;DHT22;55463;52.324;5.122;2022-08-19T08:47:04;21.27;90.21
67275;DHT22;55463;52.324;5.122;2022-08-19T08:49:42;21.39;90.07
67275;DHT22;55463;52.324;5.122;2022-08-19T08:52:20;21.38;89.43
67275;DHT22;55463;52.324;5.122;2022-08-19T08:54:48;21.55;89.72
67275;DHT22;55463;52.324;5.122;2022-08-19T08:57:22;21.80;89.46
67275;DHT22;55463;52.324;5.122;2022-08-19T08:59:50;21.90;87.78
67275;DHT22;55463;52.324;5.122;2022-08-19T09:02:17;22.13;86.68
67275;DHT22;55463;52.324;5.122;2022-08-19T09:04:43;22.58;85.86
67275;DHT22;55463;52.324;5.122;2022-08-19T09:09:43;23.38;83.22
67275;DHT22;55463;52.324;5.122;2022-08-19T09:12:31;23.08;83.61
67275;DHT22;55463;52.324;5.122;2022-08-19T09:15:07;23.21;82.96
67275;DHT22;55463;52.324;5.122;2022-08-19T09:17:34;22.92;84.23
67275;DHT22;55463;52.324;5.122;2022-08-19T09:20:21;23.07;84.03
67275;DHT22;55463;52.324;5.122;2022-08-19T09:22:46;23.80;82.47
67275;DHT22;55463;52.324;5.122;2022-08-19T09:25:16;23.69;82.42
67275;DHT22;55463;52.324;5.122;2022-08-19T09:27:42;23.52;81.94
67275;DHT22;55463;52.324;5.122;2022-08-19T09:30:10;24.31;81.22
67275;DHT22;55463;52.324;5.122;2022-08-19T09:32:36;24.44;79.71
67275;DHT22;55463;52.324;5.122;2022-08-19T09:35:04;24.93;79.43
67275;DHT22;55463;52.324;5.122;2022-08-19T09:37:31;25.31;76.49
67275;DHT22;55463;52.324;5.122;2022-08-19T09:39:56;25.14;76.91
67275;DHT22;55463;52.324;5.122;2022-08-19T09:42:22;25.23;75.99
67275;DHT22;55463;52.324;5.122;2022-08-19T09:44:48;25.55;76.21
67275;DHT22;55463;52.324;5.122;2022-08-19T09:47:13;25.99;73.62
67275;DHT22;55463;52.324;5.122;2022-08-19T09:49:39;25.83;73.70
67275;DHT22;55463;52.324;5.122;2022-08-19T09:52:08;25.41;74.90
67275;DHT22;55463;52.324;5.122;2022-08-19T09:54:34;25.25;75.63
67275;DHT22;55463;52.324;5.122;2022-08-19T09:57:00;24.59;77.89
67275;DHT22;55463;52.324;5.122;2022-08-19T09:59:26;24.59;77.08
67275;DHT22;55463;52.324;5.122;2022-08-19T10:01:51;24.22;78.70
67275;DHT22;55463;52.324;5.122;2022-08-19T10:04:16;23.80;79.18
67275;DHT22;55463;52.324;5.122;2022-08-19T10:06:42;23.89;80.15
67275;DHT22;55463;52.324;5.122;2022-08-19T10:09:09;24.16;80.75
67275;DHT22;55463;52.324;5.122;2022-08-19T10:11:36;24.13;79.86
67275;DHT22;55463;52.324;5.122;2022-08-19T10:14:04;23.84;78.65
67275;DHT22;55463;52.324;5.122;2022-08-19T10:16:31;23.65;78.76
67275;DHT22;55463;52.324;5.122;2022-08-19T10:18:57;23.66;77.54
67275;DHT22;55463;52.324;5.122;2022-08-19T10:21:28;23.79;76.89
67275;DHT22;55463;52.324;5.122;2022-08-19T10:23:57;23.97;78.32
67275;DHT22;55463;52.324;5.122;2022-08-19T10:26:27;23.90;77.64
67275;DHT22;55463;52.324;5.122;2022-08-19T10:28:53;23.77;77.15
67275;DHT22;55463;52.324;5.122;2022-08-19T10:31:21;23.97;78.16
67275;DHT22;55463;52.324;5.122;2022-08-19T10:33:48;23.97;78.47
67275;DHT22;55463;52.324;5.122;2022-08-19T10:36:16;23.77;77.45
67275;DHT22;55463;52.324;5.122;2022-08-19T10:38:50;23.96;77.61
67275;DHT22;55463;52.324;5.122;2022-08-19T10:41:22;23.99;78.09
67275;DHT22;55463;52.324;5.122;2022-08-19T10:43:53;23.83;77.78
67275;DHT22;55463;52.324;5.122;2022-08-19T10:46:20;23.76;77.93
67275;DHT22;55463;52.324;5.122;2022-08-19T10:48:46;23.66;78.06
67275;DHT22;55463;52.324;5.122;2022-08-19T10:51:12;23.49;78.71
67275;DHT22;55463;52.324;5.122;2022-08-19T10:53:57;23.37;79.82
67275;DHT22;55463;52.324;5.122;2022-08-19T10:56:23;23.17;79.72
67275;DHT22;55463;52.324;5.122;2022-08-19T10:59:08;23.17;80.76
67275;DHT22;55463;52.324;5.122;2022-08-19T11:01:34;23.29;80.10
67275;DHT22;55463;52.324;5.122;2022-08-19T11:04:02;23.44;80.29
67275;DHT22;55463;52.324;5.122;2022-08-19T11:06:27;23.62;79.76
67275;DHT22;55463;52.324;5.122;2022-08-19T11:08:54;23.79;78.70
67275;DHT22;55463;52.324;5.122;2022-08-19T11:11:20;23.76;77.94
67275;DHT22;55463;52.324;5.122;2022-08-19T11:13:46;23.79;77.91
67275;DHT22;55463;52.324;5.122;2022-08-19T11:16:16;24.07;78.06
67275;DHT22;55463;52.324;5.122;2022-08-19T11:18:44;24.22;77.44
67275;DHT22;55463;52.324;5.122;2022-08-19T11:21:19;24.63;76.34
67275;DHT22;55463;52.324;5.122;2022-08-19T11:23:46;24.91;76.31
67275;DHT22;55463;52.324;5.122;2022-08-19T11:26:13;24.66;76.72
67275;DHT22;55463;52.324;5.122;2022-08-19T11:28:39;24.44;77.14
67275;DHT22;55463;52.324;5.122;2022-08-19T11:31:10;24.22;77.14
67275;DHT22;55463;52.324;5.122;2022-08-19T11:33:36;24.00;76.94
67275;DHT22;55463;52.324;5.122;2022-08-19T11:36:02;24.07;76.98
67275;DHT22;55463;52.324;5.122;2022-08-19T11:38:28;24.48;75.65
67275;DHT22;55463;52.324;5.122;2022-08-19T11:40:59;24.69;73.29
67275;DHT22;55463;52.324;5.122;2022-08-19T11:43:25;24.91;73.85
67275;DHT22;55463;52.324;5.122;2022-08-19T11:45:53;24.89;72.81
67275;DHT22;55463;52.324;5.122;2022-08-19T11:48:18;24.97;73.47
67275;DHT22;55463;52.324;5.122;2022-08-19T11:50:50;25.28;72.54
67275;DHT22;55463;52.324;5.122;2022-08-19T11:53:19;25.18;73.33
67275;DHT22;55463;52.324;5.122;2022-08-19T11:55:46;25.00;73.87
67275;DHT22;55463;52.324;5.122;2022-08-19T11:58:13;24.82;75.08
67275;DHT22;55463;52.324;5.122;2022-08-19T12:00:39;24.83;75.37
67275;DHT22;55463;52.324;5.122;2022-08-19T12:03:05;24.87;75.18
67275;DHT22;55463;52.324;5.122;2022-08-19T12:05:30;24.80;76.22
67275;DHT22;55463;52.324;5.122;2022-08-19T12:07:56;24.34;75.88
67275;DHT22;55463;52.324;5.122;2022-08-19T12:10:22;24.04;76.33
67275;DHT22;55463;52.324;5.122;2022-08-19T12:12:48;23.94;77.59
67275;DHT22;55463;52.324;5.122;2022-08-19T12:15:13;23.92;76.57
67275;DHT22;55463;52.324;5.122;2022-08-19T12:17:40;23.84;77.47
67275;DHT22;55463;52.324;5.122;2022-08-19T12:20:08;23.72;77.46
67275;DHT22;55463;52.324;5.122;2022-08-19T12:22:36;23.87;78.55
67275;DHT22;55463;52.324;5.122;2022-08-19T12:25:03;24.01;78.38
67275;DHT22;55463;52.324;5.122;2022-08-19T12:27:30;24.09;77.58
67275;DHT22;55463;52.324;5.122;2022-08-19T12:29:55;24.03;78.11
67275;DHT22;55463;52.324;5.122;2022-08-19T12:32:20;23.99;79.30
67275;DHT22;55463;52.324;5.122;2022-08-19T12:34:46;23.99;79.73
67275;DHT22;55463;52.324;5.122;2022-08-19T12:37:12;24.03;79.41
67275;DHT22;55463;52.324;5.122;2022-08-19T12:39:40;23.93;80.09
67275;DHT22;55463;52.324;5.122;2022-08-19T12:42:07;23.92;79.08
67275;DHT22;55463;52.324;5.122;2022-08-19T12:44:34;23.72;80.06
67275;DHT22;55463;52.324;5.122;2022-08-19T12:46:59;23.62;80.82
67275;DHT22;55463;52.324;5.122;2022-08-19T12:49:27;23.55;80.94
67275;DHT22;55463;52.324;5.122;2022-08-19T12:51:52;23.56;80.96
67275;DHT22;55463;52.324;5.122;2022-08-19T12:54:18;23.72;81.41
67275;DHT22;55463;52.324;5.122;2022-08-19T12:56:43;23.89;81.18
67275;DHT22;55463;52.324;5.122;2022-08-19T12:59:09;23.92;79.88
67275;DHT22;55463;52.324;5.122;2022-08-19T13:01:36;23.97;80.81
67275;DHT22;55463;52.324;5.122;2022-08-19T13:04:01;23.96;79.10
67275;DHT22;55463;52.324;5.122;2022-08-19T13:06:27;23.86;78.50
67275;DHT22;55463;52.324;5.122;2022-08-19T13:08:54;24.11;78.68
67275;DHT22;55463;52.324;5.122;2022-08-19T13:11:20;24.13;79.42
67275;DHT22;55463;52.324;5.122;2022-08-19T13:13:47;24.35;78.15
67275;DHT22;55463;52.324;5.122;2022-08-19T13:16:14;24.20;77.18
67275;DHT22;55463;52.324;5.122;2022-08-19T13:18:41;24.51;79.17
67275;DHT22;55463;52.324;5.122;2022-08-19T13:21:09;24.39;75.80
67275;DHT22;55463;52.324;5.122;2022-08-19T13:23:36;24.44;76.29
67275;DHT22;55463;52.324;5.122;2022-08-19T13:26:05;24.31;75.60
67275;DHT22;55463;52.324;5.122;2022-08-19T13:28:31;24.37;75.49
67275;DHT22;55463;52.324;5.122;2022-08-19T13:31:17;24.48;74.85
67275;DHT22;55463;52.324;5.122;2022-08-19T13:34:02;24.62;73.94
67275;DHT22;55463;52.324;5.122;2022-08-19T13:36:27;24.73;72.29
67275;DHT22;55463;52.324;5.122;2022-08-19T13:38:53;24.83;72.70
67275;DHT22;55463;52.324;5.122;2022-08-19T13:41:19;24.83;73.22
67275;DHT22;55463;52.324;5.122;2022-08-19T13:43:44;24.87;73.03
67275;DHT22;55463;52.324;5.122;2022-08-19T13:46:10;24.82;73.18
67275;DHT22;55463;52.324;5.122;2022-08-19T13:48:39;24.72;73.82
67275;DHT22;55463;52.324;5.122;2022-08-19T13:51:06;24.49;73.78
67275;DHT22;55463;52.324;5.122;2022-08-19T13:53:38;24.48;74.49
67275;DHT22;55463;52.324;5.122;2022-08-19T13:56:08;24.56;73.18
67275;DHT22;55463;52.324;5.122;2022-08-19T13:58:34;24.77;73.66
67275;DHT22;55463;52.324;5.122;2022-08-19T14:00:59;24.80;73.83
67275;DHT22;55463;52.324;5.122;2022-08-19T14:03:26;24.94;74.44
67275;DHT22;55463;52.324;5.122;2022-08-19T14:05:52;24.80;74.20
67275;DHT22;55463;52.324;5.122;2022-08-19T14:08:18;24.87;75.26
67275;DHT22;55463;52.324;5.122;2022-08-19T14:10:44;24.75;73.58
67275;DHT22;55463;52.324;5.122;2022-08-19T14:13:13;24.89;74.31
67275;DHT22;55463;52.324;5.122;2022-08-19T14:15:39;24.65;73.88
67275;DHT22;55463;52.324;5.122;2022-08-19T14:18:04;24.58;75.17
67275;DHT22;55463;52.324;5.122;2022-08-19T14:20:30;24.66;75.40
67275;DHT22;55463;52.324;5.122;2022-08-19T14:22:55;24.68;74.88
67275;DHT22;55463;52.324;5.122;2022-08-19T14:25:23;24.75;74.23
67275;DHT22;55463;52.324;5.122;2022-08-19T14:27:50;24.65;74.49
67275;DHT22;55463;52.324;5.122;2022-08-19T14:30:19;24.68;75.06
67275;DHT22;55463;52.324;5.122;2022-08-19T14:32:45;24.91;76.30
67275;DHT22;55463;52.324;5.122;2022-08-19T14:35:12;24.83;74.83
67275;DHT22;55463;52.324;5.122;2022-08-19T14:37:38;24.86;74.38
67275;DHT22;55463;52.324;5.122;2022-08-19T14:40:04;24.82;73.28
67275;DHT22;55463;52.324;5.122;2022-08-19T14:42:30;24.96;74.27
67275;DHT22;55463;52.324;5.122;2022-08-19T14:44:59;24.72;74.79
67275;DHT22;55463;52.324;5.122;2022-08-19T14:47:26;24.47;73.53
67275;DHT22;55463;52.324;5.122;2022-08-19T14:49:51;24.35;74.62
67275;DHT22;55463;52.324;5.122;2022-08-19T14:52:17;24.32;74.96
67275;DHT22;55463;52.324;5.122;2022-08-19T14:54:42;24.41;75.61
67275;DHT22;55463;52.324;5.122;2022-08-19T14:57:11;24.52;75.54
67275;DHT22;55463;52.324;5.122;2022-08-19T14:59:37;24.56;74.11
67275;DHT22;55463;52.324;5.122;2022-08-19T15:02:02;24.68;74.31
67275;DHT22;55463;52.324;5.122;2022-08-19T15:04:28;24.96;74.20
67275;DHT22;55463;52.324;5.122;2022-08-19T15:06:53;25.18;74.65
67275;DHT22;55463;52.324;5.122;2022-08-19T15:09:18;25.49;72.92
67275;DHT22;55463;52.324;5.122;2022-08-19T15:11:44;25.58;70.67
67275;DHT22;55463;52.324;5.122;2022-08-19T15:14:10;25.65;71.90
67275;DHT22;55463;52.324;5.122;2022-08-19T15:16:35;25.72;69.64
67275;DHT22;55463;52.324;5.122;2022-08-19T15:19:03;25.89;71.12
67275;DHT22;55463;52.324;5.122;2022-08-19T15:21:29;25.82;71.76
67275;DHT22;55463;52.324;5.122;2022-08-19T15:23:56;25.49;71.99
67275;DHT22;55463;52.324;5.122;2022-08-19T15:26:22;25.08;72.46
67275;DHT22;55463;52.324;5.122;2022-08-19T15:28:48;25.02;73.08
67275;DHT22;55463;52.324;5.122;2022-08-19T15:31:19;24.86;72.77
67275;DHT22;55463;52.324;5.122;2022-08-19T15:33:48;25.27;74.16
67275;DHT22;55463;52.324;5.122;2022-08-19T15:36:14;25.65;73.28
67275;DHT22;55463;52.324;5.122;2022-08-19T15:38:40;25.62;72.58
67275;DHT22;55463;52.324;5.122;2022-08-19T15:41:22;25.44;71.83
67275;DHT22;55463;52.324;5.122;2022-08-19T15:43:57;25.18;72.10